sensor_id;sensor_type;location;lat;lon;timestamp;pressure;altitude;pressure_sealevel;temperature;humidity
12803;BME280;6465;42.700;23.278;2024-03-02T00:01:06;94396.03;;;9.12;91.94
12803;BME280;6465;42.700;23.278;2024-03-02T00:03:34;94401.09;;;9.16;91.57
12803;BME280;6465;42.700;23.278;2024-03-02T00:06:04;94403.78;;;9.14;91.77
12803;BME280;6465;42.700;23.278;2024-03-02T00:08:31;94402.69;;;9.02;91.92
12803;BME280;6465;42.700;23.278;2024-03-02T00:10:59;94401.66;;;9.05;92.20
12803;BME280;6465;42.700;23.278;2024-03-02T00:13:29;94405.97;;;9.06;91.88
12803;BME280;6465;42.700;23.278;2024-03-02T00:15:57;94396.44;;;9.05;91.65
12803;BME280;6465;42.700;23.278;2024-03-02T00:18:26;94392.66;;;9.10;90.41
12803;BME280;6465;42.700;23.278;2024-03-02T00:20:55;94389.19;;;9.26;89.33
12803;BME280;6465;42.700;23.278;2024-03-02T00:23:23;94398.22;;;9.20;89.14
12803;BME280;6465;42.700;23.278;2024-03-02T00:25:52;94405.97;;;9.22;89.22
12803;BME280;6465;42.700;23.278;2024-03-02T00:28:20;94398.88;;;9.24;88.97
12803;BME280;6465;42.700;23.278;2024-03-02T00:30:54;94399.78;;;9.23;88.94
12803;BME280;6465;42.700;23.278;2024-03-02T00:33:21;94392.91;;;9.22;89.50
12803;BME280;6465;42.700;23.278;2024-03-02T00:35:48;94387.25;;;9.13;89.94
12803;BME280;6465;42.700;23.278;2024-03-02T00:38:17;94394.34;;;9.11;90.24
12803;BME280;6465;42.700;23.278;2024-03-02T00:40:44;94390.16;;;9.09;90.68
12803;BME280;6465;42.700;23.278;2024-03-02T00:43:44;94379.50;;;9.12;91.29
12803;BME280;6465;42.700;23.278;2024-03-02T00:46:13;94395.88;;;9.16;91.05
12803;BME280;6465;42.700;23.278;2024-03-02T00:48:48;94392.78;;;9.23;91.34
12803;BME280;6465;42.700;23.278;2024-03-02T00:51:18;94388.69;;;9.35;90.06
12803;BME280;6465;42.700;23.278;2024-03-02T00:53:46;94392.78;;;9.39;89.43
12803;BME280;6465;42.700;23.278;2024-03-02T00:56:14;94390.75;;;9.44;89.02
12803;BME280;6465;42.700;23.278;2024-03-02T00:58:41;94386.44;;;9.43;88.96
12803;BME280;6465;42.700;23.278;2024-03-02T01:01:08;94393.13;;;9.48;88.31
12803;BME280;6465;42.700;23.278;2024-03-02T01:03:35;94398.91;;;9.53;87.73
12803;BME280;6465;42.700;23.278;2024-03-02T01:06:03;94396.78;;;9.60;87.33
12803;BME280;6465;42.700;23.278;2024-03-02T01:08:30;94393.81;;;9.66;86.21
12803;BME280;6465;42.700;23.278;2024-03-02T01:10:59;94396.44;;;9.66;86.09
12803;BME280;6465;42.700;23.278;2024-03-02T01:13:26;94390.34;;;9.66;86.30
12803;BME280;6465;42.700;23.278;2024-03-02T01:15:53;94387.66;;;9.67;86.54
12803;BME280;6465;42.700;23.278;2024-03-02T01:18:20;94385.97;;;9.66;87.06
12803;BME280;6465;42.700;23.278;2024-03-02T01:20:47;94380.75;;;9.66;86.68
12803;BME280;6465;42.700;23.278;2024-03-02T01:23:17;94375.88;;;9.60;86.67
12803;BME280;6465;42.700;23.278;2024-03-02T01:25:45;94376.16;;;9.56;87.14
12803;BME280;6465;42.700;23.278;2024-03-02T01:28:14;94369.31;;;9.53;88.02
12803;BME280;6465;42.700;23.278;2024-03-02T01:30:41;94366.13;;;9.48;87.98
12803;BME280;6465;42.700;23.278;2024-03-02T01:33:08;94357.84;;;9.56;88.13
12803;BME280;6465;42.700;23.278;2024-03-02T01:35:36;94357.59;;;9.60;87.68
12803;BME280;6465;42.700;23.278;2024-03-02T01:38:03;94360.19;;;9.60;87.45
12803;BME280;6465;42.700;23.278;2024-03-02T01:40:32;94359.28;;;9.61;88.21
12803;BME280;6465;42.700;23.278;2024-03-02T01:42:59;94368.59;;;9.65;88.56
12803;BME280;6465;42.700;23.278;2024-03-02T01:45:29;94369.44;;;9.66;88.19
12803;BME280;6465;42.700;23.278;2024-03-02T01:47:56;94368.03;;;9.60;89.23
12803;BME280;6465;42.700;23.278;2024-03-02T01:50:27;94363.16;;;9.54;90.03
12803;BME280;6465;42.700;23.278;2024-03-02T01:52:55;94353.63;;;9.53;89.04
12803;BME280;6465;42.700;23.278;2024-03-02T01:55:22;94357.84;;;9.56;89.90
12803;BME280;6465;42.700;23.278;2024-03-02T01:57:50;94354.75;;;9.49;90.93
12803;BME280;6465;42.700;23.278;2024-03-02T02:00:18;94347.44;;;9.40;92.21
12803;BME280;6465;42.700;23.278;2024-03-02T02:02:46;94358.81;;;9.39;93.25
12803;BME280;6465;42.700;23.278;2024-03-02T02:05:14;94360.16;;;9.30;93.31
12803;BME280;6465;42.700;23.278;2024-03-02T02:07:41;94356.22;;;9.23;94.12
12803;BME280;6465;42.700;23.278;2024-03-02T02:10:09;94362.22;;;9.25;94.97
12803;BME280;6465;42.700;23.278;2024-03-02T02:12:37;94348.63;;;9.34;96.06
12803;BME280;6465;42.700;23.278;2024-03-02T02:15:04;94351.81;;;9.39;95.75
12803;BME280;6465;42.700;23.278;2024-03-02T02:17:49;94360.06;;;9.47;96.87
12803;BME280;6465;42.700;23.278;2024-03-02T02:20:16;94359.56;;;9.41;96.60
12803;BME280;6465;42.700;23.278;2024-03-02T02:22:55;94366.31;;;9.45;96.31
12803;BME280;6465;42.700;23.278;2024-03-02T02:25:22;94360.22;;;9.44;95.72
12803;BME280;6465;42.700;23.278;2024-03-02T02:27:49;94354.50;;;9.38;95.50
12803;BME280;6465;42.700;23.278;2024-03-02T02:30:19;94353.09;;;9.32;95.25
12803;BME280;6465;42.700;23.278;2024-03-02T02:32:46;94357.22;;;9.36;95.79
12803;BME280;6465;42.700;23.278;2024-03-02T02:35:13;94358.16;;;9.35;96.65
12803;BME280;6465;42.700;23.278;2024-03-02T02:37:41;94355.78;;;9.31;96.80
12803;BME280;6465;42.700;23.278;2024-03-02T02:40:10;94359.44;;;9.28;96.70
12803;BME280;6465;42.700;23.278;2024-03-02T02:42:38;94359.78;;;9.22;96.50
12803;BME280;6465;42.700;23.278;2024-03-02T02:45:05;94361.38;;;9.25;96.41
12803;BME280;6465;42.700;23.278;2024-03-02T02:47:33;94360.53;;;9.24;96.29
12803;BME280;6465;42.700;23.278;2024-03-02T02:50:01;94364.81;;;9.25;96.47
12803;BME280;6465;42.700;23.278;2024-03-02T02:52:31;94373.59;;;9.24;97.38
12803;BME280;6465;42.700;23.278;2024-03-02T02:55:02;94368.38;;;9.24;97.04
12803;BME280;6465;42.700;23.278;2024-03-02T02:57:31;94365.81;;;9.23;97.13
12803;BME280;6465;42.700;23.278;2024-03-02T03:00:02;94365.25;;;9.18;98.83
12803;BME280;6465;42.700;23.278;2024-03-02T03:02:36;94368.19;;;9.27;98.00
12803;BME280;6465;42.700;23.278;2024-03-02T03:05:04;94369.41;;;9.22;97.60
12803;BME280;6465;42.700;23.278;2024-03-02T03:07:31;94359.28;;;9.16;97.76
12803;BME280;6465;42.700;23.278;2024-03-02T03:09:58;94364.34;;;9.19;97.24
12803;BME280;6465;42.700;23.278;2024-03-02T03:12:26;94356.84;;;9.12;97.03
12803;BME280;6465;42.700;23.278;2024-03-02T03:14:54;94360.22;;;9.14;97.58
12803;BME280;6465;42.700;23.278;2024-03-02T03:17:21;94364.34;;;9.19;97.84
12803;BME280;6465;42.700;23.278;2024-03-02T03:19:49;94365.03;;;9.22;97.84
12803;BME280;6465;42.700;23.278;2024-03-02T03:22:16;94364.16;;;9.22;98.11
12803;BME280;6465;42.700;23.278;2024-03-02T03:24:43;94373.44;;;9.27;97.49
12803;BME280;6465;42.700;23.278;2024-03-02T03:27:10;94369.63;;;9.17;98.30
12803;BME280;6465;42.700;23.278;2024-03-02T03:29:37;94337.56;;;8.99;98.53
12803;BME280;6465;42.700;23.278;2024-03-02T03:32:07;94360.38;;;9.11;98.00
12803;BME280;6465;42.700;23.278;2024-03-02T03:34:34;94354.06;;;9.16;98.28
12803;BME280;6465;42.700;23.278;2024-03-02T03:37:01;94367.03;;;9.17;98.17
12803;BME280;6465;42.700;23.278;2024-03-02T03:39:28;94366.38;;;9.13;98.12
12803;BME280;6465;42.700;23.278;2024-03-02T03:41:55;94369.06;;;9.12;98.01
12803;BME280;6465;42.700;23.278;2024-03-02T03:44:22;94363.69;;;9.15;98.28
12803;BME280;6465;42.700;23.278;2024-03-02T03:46:49;94368.91;;;9.15;98.28
12803;BME280;6465;42.700;23.278;2024-03-02T03:49:19;94374.84;;;9.17;98.38
12803;BME280;6465;42.700;23.278;2024-03-02T03:51:46;94372.50;;;9.12;98.92
12803;BME280;6465;42.700;23.278;2024-03-02T03:54:13;94367.22;;;9.14;98.50
12803;BME280;6465;42.700;23.278;2024-03-02T03:56:40;94356.91;;;9.11;98.48
12803;BME280;6465;42.700;23.278;2024-03-02T03:59:08;94362.22;;;9.09;98.61
12803;BME280;6465;42.700;23.278;2024-03-02T04:01:35;94365.69;;;9.10;99.23
12803;BME280;6465;42.700;23.278;2024-03-02T04:04:02;94361.22;;;9.12;99.45
12803;BME280;6465;42.700;23.278;2024-03-02T04:06:30;94361.16;;;9.13;99.02
12803;BME280;6465;42.700;23.278;2024-03-02T04:08:58;94366.09;;;9.18;99.15
12803;BME280;6465;42.700;23.278;2024-03-02T04:11:25;94362.47;;;9.21;98.96
12803;BME280;6465;42.700;23.278;2024-03-02T04:13:52;94363.47;;;9.18;99.21
12803;BME280;6465;42.700;23.278;2024-03-02T04:16:18;94364.25;;;9.20;99.10
12803;BME280;6465;42.700;23.278;2024-03-02T04:18:45;94367.72;;;9.21;99.36
12803;BME280;6465;42.700;23.278;2024-03-02T04:21:12;94356.34;;;9.22;99.48
12803;BME280;6465;42.700;23.278;2024-03-02T04:23:41;94359.88;;;9.21;99.10
12803;BME280;6465;42.700;23.278;2024-03-02T04:26:08;94352.19;;;9.18;99.53
12803;BME280;6465;42.700;23.278;2024-03-02T04:28:35;94361.06;;;9.15;100.00
12803;BME280;6465;42.700;23.278;2024-03-02T04:31:02;94366.59;;;9.25;100.00
12803;BME280;6465;42.700;23.278;2024-03-02T04:33:29;94370.06;;;9.25;100.00
12803;BME280;6465;42.700;23.278;2024-03-02T04:35:56;94372.16;;;9.19;100.00
12803;BME280;6465;42.700;23.278;2024-03-02T04:38:23;94365.03;;;9.22;100.00
12803;BME280;6465;42.700;23.278;2024-03-02T04:40:51;94372.66;;;9.25;100.00
12803;BME280;6465;42.700;23.278;2024-03-02T04:43:18;94372.84;;;9.22;100.00
12803;BME280;6465;42.700;23.278;2024-03-02T04:45:45;94372.22;;;9.33;100.00
12803;BME280;6465;42.700;23.278;2024-03-02T04:48:12;94367.28;;;9.28;100.00
12803;BME280;6465;42.700;23.278;2024-03-02T04:50:40;94373.00;;;9.35;100.00
12803;BME280;6465;42.700;23.278;2024-03-02T04:53:07;94379.31;;;9.31;100.00
12803;BME280;6465;42.700;23.278;2024-03-02T04:55:34;94373.50;;;9.26;100.00
12803;BME280;6465;42.700;23.278;2024-03-02T04:58:18;94378.31;;;9.18;100.00
12803;BME280;6465;42.700;23.278;2024-03-02T05:00:45;94367.44;;;9.09;100.00
12803;BME280;6465;42.700;23.278;2024-03-02T05:03:13;94383.72;;;9.14;100.00
12803;BME280;6465;42.700;23.278;2024-03-02T05:05:40;94375.13;;;9.12;100.00
12803;BME280;6465;42.700;23.278;2024-03-02T05:08:07;94382.97;;;9.12;100.00
12803;BME280;6465;42.700;23.278;2024-03-02T05:10:34;94385.16;;;9.04;100.00
12803;BME280;6465;42.700;23.278;2024-03-02T05:13:02;94385.16;;;9.04;100.00
12803;BME280;6465;42.700;23.278;2024-03-02T05:15:29;94383.38;;;9.05;100.00
12803;BME280;6465;42.700;23.278;2024-03-02T05:17:56;94390.28;;;9.06;100.00
12803;BME280;6465;42.700;23.278;2024-03-02T05:20:24;94393.19;;;9.01;100.00
12803;BME280;6465;42.700;23.278;2024-03-02T05:22:51;94402.09;;;8.97;100.00
12803;BME280;6465;42.700;23.278;2024-03-02T05:25:18;94392.47;;;8.98;100.00
12803;BME280;6465;42.700;23.278;2024-03-02T05:27:45;94392.66;;;8.95;100.00
12803;BME280;6465;42.700;23.278;2024-03-02T05:30:13;94399.41;;;8.99;100.00
12803;BME280;6465;42.700;23.278;2024-03-02T05:32:41;94402.09;;;8.97;100.00
12803;BME280;6465;42.700;23.278;2024-03-02T05:35:08;94402.16;;;8.96;100.00
12803;BME280;6465;42.700;23.278;2024-03-02T05:37:36;94411.44;;;9.01;100.00
12803;BME280;6465;42.700;23.278;2024-03-02T05:40:05;94414.22;;;8.98;100.00
12803;BME280;6465;42.700;23.278;2024-03-02T05:42:33;94405.53;;;8.98;100.00
12803;BME280;6465;42.700;23.278;2024-03-02T05:45:00;94412.31;;;9.02;100.00
12803;BME280;6465;42.700;23.278;2024-03-02T05:47:27;94408.00;;;9.01;100.00
12803;BME280;6465;42.700;23.278;2024-03-02T05:49:56;94413.16;;;9.02;100.00
12803;BME280;6465;42.700;23.278;2024-03-02T05:52:23;94424.50;;;9.01;100.00
12803;BME280;6465;42.700;23.278;2024-03-02T05:54:50;94413.88;;;9.04;100.00
12803;BME280;6465;42.700;23.278;2024-03-02T05:57:17;94421.38;;;9.10;100.00
12803;BME280;6465;42.700;23.278;2024-03-02T05:59:57;94426.53;;;9.12;100.00
12803;BME280;6465;42.700;23.278;2024-03-02T06:02:24;94418.94;;;9.07;100.00
12803;BME280;6465;42.700;23.278;2024-03-02T06:04:54;94418.03;;;9.08;100.00
12803;BME280;6465;42.700;23.278;2024-03-02T06:07:22;94416.41;;;9.06;100.00
12803;BME280;6465;42.700;23.278;2024-03-02T06:09:49;94420.78;;;9.05;100.00
12803;BME280;6465;42.700;23.278;2024-03-02T06:12:17;94420.78;;;9.05;100.00
12803;BME280;6465;42.700;23.278;2024-03-02T06:14:45;94423.31;;;9.07;100.00
12803;BME280;6465;42.700;23.278;2024-03-02T06:17:12;94425.34;;;9.18;100.00
12803;BME280;6465;42.700;23.278;2024-03-02T06:19:39;94416.75;;;9.16;100.00
12803;BME280;6465;42.700;23.278;2024-03-02T06:22:06;94426.25;;;9.17;100.00
12803;BME280;6465;42.700;23.278;2024-03-02T06:24:37;94423.63;;;9.17;100.00
12803;BME280;6465;42.700;23.278;2024-03-02T06:27:04;94422.13;;;9.12;100.00
12803;BME280;6465;42.700;23.278;2024-03-02T06:29:32;94423.63;;;9.17;100.00
12803;BME280;6465;42.700;23.278;2024-03-02T06:31:59;94430.41;;;9.21;100.00
12803;BME280;6465;42.700;23.278;2024-03-02T06:34:26;94423.41;;;9.21;100.00
12803;BME280;6465;42.700;23.278;2024-03-02T06:36:53;94429.22;;;9.26;100.00
12803;BME280;6465;42.700;23.278;2024-03-02T06:39:21;94427.59;;;9.24;100.00
12803;BME280;6465;42.700;23.278;2024-03-02T06:41:49;94432.41;;;9.31;100.00
12803;BME280;6465;42.700;23.278;2024-03-02T06:44:16;94434.00;;;9.34;100.00
12803;BME280;6465;42.700;23.278;2024-03-02T06:46:43;94426.69;;;9.25;100.00
12803;BME280;6465;42.700;23.278;2024-03-02T06:49:10;94437.13;;;9.25;100.00
12803;BME280;6465;42.700;23.278;2024-03-02T06:51:37;94429.53;;;9.04;100.00
12803;BME280;6465;42.700;23.278;2024-03-02T06:54:04;94445.22;;;9.04;100.00
12803;BME280;6465;42.700;23.278;2024-03-02T06:56:31;94443.94;;;8.96;100.00
12803;BME280;6465;42.700;23.278;2024-03-02T06:59:01;94450.53;;;8.87;100.00
12803;BME280;6465;42.700;23.278;2024-03-02T07:01:28;94449.94;;;8.82;100.00
12803;BME280;6465;42.700;23.278;2024-03-02T07:03:55;94453.28;;;8.84;100.00
12803;BME280;6465;42.700;23.278;2024-03-02T07:06:21;94451.44;;;8.86;100.00
12803;BME280;6465;42.700;23.278;2024-03-02T07:08:48;94450.00;;;8.81;100.00
12803;BME280;6465;42.700;23.278;2024-03-02T07:11:15;94447.41;;;8.81;100.00
12803;BME280;6465;42.700;23.278;2024-03-02T07:13:42;94454.38;;;8.80;100.00
12803;BME280;6465;42.700;23.278;2024-03-02T07:16:11;94457.34;;;8.74;100.00
12803;BME280;6465;42.700;23.278;2024-03-02T07:18:54;94460.16;;;8.69;100.00
12803;BME280;6465;42.700;23.278;2024-03-02T07:21:22;94455.03;;;8.68;100.00
12803;BME280;6465;42.700;23.278;2024-03-02T07:23:49;94453.44;;;8.65;100.00
12803;BME280;6465;42.700;23.278;2024-03-02T07:26:16;94457.66;;;8.68;100.00
12803;BME280;6465;42.700;23.278;2024-03-02T07:28:45;94461.69;;;8.73;100.00
12803;BME280;6465;42.700;23.278;2024-03-02T07:31:14;94464.53;;;8.69;100.00
12803;BME280;6465;42.700;23.278;2024-03-02T07:33:44;94460.34;;;8.66;100.00
12803;BME280;6465;42.700;23.278;2024-03-02T07:36:11;94458.66;;;8.65;100.00
12803;BME280;6465;42.700;23.278;2024-03-02T07:38:38;94464.72;;;8.66;100.00
12803;BME280;6465;42.700;23.278;2024-03-02T07:41:06;94468.09;;;8.68;100.00
12803;BME280;6465;42.700;23.278;2024-03-02T07:43:33;94469.59;;;8.72;100.00
12803;BME280;6465;42.700;23.278;2024-03-02T07:46:00;94472.16;;;8.73;100.00
12803;BME280;6465;42.700;23.278;2024-03-02T07:48:30;94468.44;;;8.78;100.00
12803;BME280;6465;42.700;23.278;2024-03-02T07:50:57;94475.28;;;8.80;100.00
12803;BME280;6465;42.700;23.278;2024-03-02T07:53:24;94463.91;;;8.81;100.00
12803;BME280;6465;42.700;23.278;2024-03-02T07:55:51;94471.03;;;8.78;100.00
12803;BME280;6465;42.700;23.278;2024-03-02T07:58:18;94473.00;;;8.74;100.00
12803;BME280;6465;42.700;23.278;2024-03-02T08:00:46;94474.69;;;8.75;100.00
12803;BME280;6465;42.700;23.278;2024-03-02T08:03:13;94473.59;;;8.79;100.00
12803;BME280;6465;42.700;23.278;2024-03-02T08:05:42;94466.22;;;8.70;100.00
12803;BME280;6465;42.700;23.278;2024-03-02T08:08:09;94473.00;;;8.74;100.00
12803;BME280;6465;42.700;23.278;2024-03-02T08:10:37;94485.72;;;8.80;100.00
12803;BME280;6465;42.700;23.278;2024-03-02T08:13:04;94489.69;;;8.87;100.00
12803;BME280;6465;42.700;23.278;2024-03-02T08:15:31;94485.06;;;8.92;100.00
12803;BME280;6465;42.700;23.278;2024-03-02T08:17:58;94481.66;;;8.90;100.00
12803;BME280;6465;42.700;23.278;2024-03-02T08:20:25;94486.41;;;8.99;100.00
12803;BME280;6465;42.700;23.278;2024-03-02T08:22:54;94475.97;;;8.99;100.00
12803;BME280;6465;42.700;23.278;2024-03-02T08:25:21;94477.41;;;9.05;100.00
12803;BME280;6465;42.700;23.278;2024-03-02T08:27:48;94482.69;;;9.03;100.00
12803;BME280;6465;42.700;23.278;2024-03-02T08:30:15;94479.34;;;9.01;100.00
12803;BME280;6465;42.700;23.278;2024-03-02T08:32:43;94480.72;;;9.08;100.00
12803;BME280;6465;42.700;23.278;2024-03-02T08:35:10;94477.06;;;9.11;100.00
12803;BME280;6465;42.700;23.278;2024-03-02T08:37:38;94476.66;;;9.19;100.00
12803;BME280;6465;42.700;23.278;2024-03-02T08:40:08;94479.44;;;9.31;100.00
12803;BME280;6465;42.700;23.278;2024-03-02T08:42:36;94474.38;;;9.44;100.00
12803;BME280;6465;42.700;23.278;2024-03-02T08:45:03;94481.19;;;9.62;100.00
12803;BME280;6465;42.700;23.278;2024-03-02T08:47:30;94476.03;;;9.76;100.00
12803;BME280;6465;42.700;23.278;2024-03-02T08:49:59;94475.50;;;9.85;100.00
12803;BME280;6465;42.700;23.278;2024-03-02T08:52:26;94482.06;;;9.92;100.00
12803;BME280;6465;42.700;23.278;2024-03-02T08:54:53;94474.97;;;9.94;100.00
12803;BME280;6465;42.700;23.278;2024-03-02T08:57:21;94483.22;;;10.03;100.00
12803;BME280;6465;42.700;23.278;2024-03-02T08:59:48;94484.88;;;10.04;100.00
12803;BME280;6465;42.700;23.278;2024-03-02T09:02:15;94478.72;;;10.05;100.00
12803;BME280;6465;42.700;23.278;2024-03-02T09:04:42;94484.19;;;10.16;100.00
12803;BME280;6465;42.700;23.278;2024-03-02T09:07:09;94483.59;;;10.26;100.00
12803;BME280;6465;42.700;23.278;2024-03-02T09:09:36;94482.34;;;10.48;100.00
12803;BME280;6465;42.700;23.278;2024-03-02T09:12:04;94480.63;;;10.47;99.21
12803;BME280;6465;42.700;23.278;2024-03-02T09:14:33;94488.03;;;10.54;99.58
12803;BME280;6465;42.700;23.278;2024-03-02T09:17:00;94496.84;;;10.67;98.66
12803;BME280;6465;42.700;23.278;2024-03-02T09:19:27;94487.78;;;10.73;98.48
12803;BME280;6465;42.700;23.278;2024-03-02T09:21:55;94493.94;;;10.86;97.84
12803;BME280;6465;42.700;23.278;2024-03-02T09:24:24;94487.97;;;10.84;97.89
12803;BME280;6465;42.700;23.278;2024-03-02T09:26:51;94494.63;;;10.90;97.33
12803;BME280;6465;42.700;23.278;2024-03-02T09:29:18;94497.88;;;10.93;96.97
12803;BME280;6465;42.700;23.278;2024-03-02T09:31:47;94490.78;;;10.95;96.21
12803;BME280;6465;42.700;23.278;2024-03-02T09:34:15;94501.06;;;10.98;95.13
12803;BME280;6465;42.700;23.278;2024-03-02T09:36:42;94496.28;;;11.05;95.41
12803;BME280;6465;42.700;23.278;2024-03-02T09:39:09;94502.81;;;11.12;94.18
12803;BME280;6465;42.700;23.278;2024-03-02T09:41:36;94495.53;;;11.17;91.91
12803;BME280;6465;42.700;23.278;2024-03-02T09:44:04;94491.31;;;11.00;92.88
12803;BME280;6465;42.700;23.278;2024-03-02T09:46:31;94496.66;;;10.99;94.37
12803;BME280;6465;42.700;23.278;2024-03-02T09:49:00;94498.91;;;11.05;94.22
12803;BME280;6465;42.700;23.278;2024-03-02T09:51:27;94499.75;;;11.05;93.93
12803;BME280;6465;42.700;23.278;2024-03-02T09:53:55;94502.28;;;11.07;94.67
12803;BME280;6465;42.700;23.278;2024-03-02T09:56:22;94506.41;;;11.11;93.40
12803;BME280;6465;42.700;23.278;2024-03-02T09:58:49;94509.75;;;11.13;93.34
12803;BME280;6465;42.700;23.278;2024-03-02T10:01:16;94509.38;;;11.19;94.07
12803;BME280;6465;42.700;23.278;2024-03-02T10:03:44;94503.59;;;11.14;94.60
12803;BME280;6465;42.700;23.278;2024-03-02T10:06:24;94495.56;;;11.03;95.26
12803;BME280;6465;42.700;23.278;2024-03-02T10:08:52;94496.66;;;10.99;96.29
12803;BME280;6465;42.700;23.278;2024-03-02T10:11:26;94501.16;;;10.97;97.53
12803;BME280;6465;42.700;23.278;2024-03-02T10:14:04;94502.09;;;10.96;96.35
12803;BME280;6465;42.700;23.278;2024-03-02T10:16:34;94500.03;;;11.01;95.73
12803;BME280;6465;42.700;23.278;2024-03-02T10:19:15;94496.66;;;10.85;96.62
12803;BME280;6465;42.700;23.278;2024-03-02T10:21:45;94502.09;;;10.67;97.55
12803;BME280;6465;42.700;23.278;2024-03-02T10:24:12;94501.13;;;10.54;98.48
12803;BME280;6465;42.700;23.278;2024-03-02T10:26:39;94498.78;;;10.50;99.81
12803;BME280;6465;42.700;23.278;2024-03-02T10:29:08;94497.03;;;10.50;100.00
12803;BME280;6465;42.700;23.278;2024-03-02T10:31:37;94497.59;;;10.55;100.00
12803;BME280;6465;42.700;23.278;2024-03-02T10:34:04;94501.13;;;10.54;100.00
12803;BME280;6465;42.700;23.278;2024-03-02T10:36:32;94497.50;;;10.57;100.00
12803;BME280;6465;42.700;23.278;2024-03-02T10:39:03;94494.69;;;10.60;100.00
12803;BME280;6465;42.700;23.278;2024-03-02T10:41:33;94499.28;;;10.56;100.00
12803;BME280;6465;42.700;23.278;2024-03-02T10:44:02;94490.09;;;10.49;100.00
12803;BME280;6465;42.700;23.278;2024-03-02T10:46:30;94495.06;;;10.54;100.00
12803;BME280;6465;42.700;23.278;2024-03-02T10:48:57;94478.09;;;10.45;100.00
12803;BME280;6465;42.700;23.278;2024-03-02T10:51:25;94483.81;;;10.52;100.00
12803;BME280;6465;42.700;23.278;2024-03-02T10:53:53;94484.56;;;10.54;100.00
12803;BME280;6465;42.700;23.278;2024-03-02T10:56:28;94479.78;;;10.46;100.00
12803;BME280;6465;42.700;23.278;2024-03-02T10:59:01;94483.34;;;10.45;100.00
12803;BME280;6465;42.700;23.278;2024-03-02T11:01:30;94484.84;;;10.35;100.00
12803;BME280;6465;42.700;23.278;2024-03-02T11:03:59;94482.59;;;10.29;100.00
12803;BME280;6465;42.700;23.278;2024-03-02T11:06:28;94482.59;;;10.29;100.00
12803;BME280;6465;42.700;23.278;2024-03-02T11:09:00;94470.28;;;10.15;100.00
12803;BME280;6465;42.700;23.278;2024-03-02T11:11:36;94474.13;;;10.24;100.00
12803;BME280;6465;42.700;23.278;2024-03-02T11:14:07;94474.06;;;10.25;100.00
12803;BME280;6465;42.700;23.278;2024-03-02T11:16:36;94470.88;;;10.20;100.00
12803;BME280;6465;42.700;23.278;2024-03-02T11:19:05;94474.34;;;10.21;100.00
12803;BME280;6465;42.700;23.278;2024-03-02T11:21:34;94472.50;;;10.37;100.00
12803;BME280;6465;42.700;23.278;2024-03-02T11:24:30;94480.19;;;10.54;100.00
12803;BME280;6465;42.700;23.278;2024-03-02T11:27:01;94474.66;;;10.59;100.00
12803;BME280;6465;42.700;23.278;2024-03-02T11:29:43;94473.84;;;10.72;100.00
12803;BME280;6465;42.700;23.278;2024-03-02T11:32:15;94469.66;;;10.70;100.00
12803;BME280;6465;42.700;23.278;2024-03-02T11:34:45;94468.44;;;10.76;100.00
12803;BME280;6465;42.700;23.278;2024-03-02T11:37:13;94462.91;;;10.80;100.00
12803;BME280;6465;42.700;23.278;2024-03-02T11:39:42;94466.75;;;10.75;100.00
12803;BME280;6465;42.700;23.278;2024-03-02T11:42:11;94466.44;;;10.79;100.00
12803;BME280;6465;42.700;23.278;2024-03-02T11:44:41;94474.13;;;10.82;100.00
12803;BME280;6465;42.700;23.278;2024-03-02T11:47:10;94468.81;;;10.84;100.00
12803;BME280;6465;42.700;23.278;2024-03-02T11:49:41;94468.69;;;10.85;96.97
12803;BME280;6465;42.700;23.278;2024-03-02T11:52:09;94485.44;;;10.83;96.96
12803;BME280;6465;42.700;23.278;2024-03-02T11:54:37;94461.66;;;10.86;98.49
12803;BME280;6465;42.700;23.278;2024-03-02T11:57:06;94464.13;;;10.89;96.96
12803;BME280;6465;42.700;23.278;2024-03-02T11:59:35;94468.78;;;10.98;95.83
12803;BME280;6465;42.700;23.278;2024-03-02T12:02:02;94468.97;;;10.95;96.94
12803;BME280;6465;42.700;23.278;2024-03-02T12:04:29;94468.78;;;10.98;97.59
12803;BME280;6465;42.700;23.278;2024-03-02T12:06:59;94467.13;;;10.97;95.54
12803;BME280;6465;42.700;23.278;2024-03-02T12:09:29;94467.28;;;10.94;96.62
12803;BME280;6465;42.700;23.278;2024-03-02T12:12:03;94462.25;;;10.91;96.66
12803;BME280;6465;42.700;23.278;2024-03-02T12:14:31;94467.84;;;10.99;95.94
12803;BME280;6465;42.700;23.278;2024-03-02T12:16:59;94469.44;;;11.01;95.74
12803;BME280;6465;42.700;23.278;2024-03-02T12:19:27;94463.53;;;10.98;95.16
12803;BME280;6465;42.700;23.278;2024-03-02T12:21:55;94461.50;;;10.89;96.07
12803;BME280;6465;42.700;23.278;2024-03-02T12:24:23;94464.66;;;10.94;96.71
12803;BME280;6465;42.700;23.278;2024-03-02T12:26:50;94462.97;;;11.07;95.98
12803;BME280;6465;42.700;23.278;2024-03-02T12:29:18;94466.44;;;11.07;95.29
12803;BME280;6465;42.700;23.278;2024-03-02T12:31:48;94461.66;;;11.00;95.82
12803;BME280;6465;42.700;23.278;2024-03-02T12:34:17;94460.75;;;11.01;96.13
12803;BME280;6465;42.700;23.278;2024-03-02T12:36:46;94460.28;;;10.94;95.45
12803;BME280;6465;42.700;23.278;2024-03-02T12:39:15;94459.34;;;10.95;96.07
12803;BME280;6465;42.700;23.278;2024-03-02T12:41:43;94461.22;;;10.93;96.30
12803;BME280;6465;42.700;23.278;2024-03-02T12:44:10;94461.88;;;10.97;95.99
12803;BME280;6465;42.700;23.278;2024-03-02T12:46:37;94466.34;;;10.95;96.33
12803;BME280;6465;42.700;23.278;2024-03-02T12:49:08;94467.75;;;11.00;97.16
12803;BME280;6465;42.700;23.278;2024-03-02T12:51:39;94455.97;;;10.93;95.80
12803;BME280;6465;42.700;23.278;2024-03-02T12:54:07;94459.34;;;10.95;95.66
12803;BME280;6465;42.700;23.278;2024-03-02T12:56:35;94470.66;;;10.96;97.59
12803;BME280;6465;42.700;23.278;2024-03-02T12:59:02;94467.50;;;10.91;97.08
12803;BME280;6465;42.700;23.278;2024-03-02T13:01:29;94474.69;;;10.87;98.05
12803;BME280;6465;42.700;23.278;2024-03-02T13:03:57;94479.00;;;10.88;97.83
12803;BME280;6465;42.700;23.278;2024-03-02T13:06:25;94479.75;;;10.90;96.04
12803;BME280;6465;42.700;23.278;2024-03-02T13:08:55;94476.66;;;10.84;97.37